sensor_id;sensor_type;location;lat;lon;timestamp;P1;durP1;ratioP1;P2;durP2;ratioP2
61673;SDS011;47573;43.832;5.974;2023-02-21T00:00:31;659.30;;;517.77;;
61673;SDS011;47573;43.832;5.974;2023-02-21T00:07:13;620.83;;;474.97;;
61673;SDS011;47573;43.832;5.974;2023-02-21T00:13:54;636.87;;;493.20;;
61673;SDS011;47573;43.832;5.974;2023-02-21T00:20:34;641.70;;;501.07;;
61673;SDS011;47573;43.832;5.974;2023-02-21T00:27:16;650.20;;;501.63;;
61673;SDS011;47573;43.832;5.974;2023-02-21T00:33:57;633.40;;;484.50;;
61673;SDS011;47573;43.832;5.974;2023-02-21T00:40:38;623.43;;;468.70;;
61673;SDS011;47573;43.832;5.974;2023-02-21T00:47:20;616.45;;;465.17;;
61673;SDS011;47573;43.832;5.974;2023-02-21T00:54:00;599.13;;;452.73;;
61673;SDS011;47573;43.832;5.974;2023-02-21T01:00:41;602.15;;;450.83;;
61673;SDS011;47573;43.832;5.974;2023-02-21T01:07:23;592.33;;;437.53;;
61673;SDS011;47573;43.832;5.974;2023-02-21T01:14:04;588.85;;;432.67;;
61673;SDS011;47573;43.832;5.974;2023-02-21T01:20:46;583.90;;;426.98;;
61673;SDS011;47573;43.832;5.974;2023-02-21T01:27:28;571.57;;;415.00;;
61673;SDS011;47573;43.832;5.974;2023-02-21T01:34:08;559.88;;;398.80;;
61673;SDS011;47573;43.832;5.974;2023-02-21T01:40:49;561.90;;;400.92;;
61673;SDS011;47573;43.832;5.974;2023-02-21T01:47:31;554.20;;;389.48;;
61673;SDS011;47573;43.832;5.974;2023-02-21T01:54:12;550.60;;;382.73;;
61673;SDS011;47573;43.832;5.974;2023-02-21T02:00:53;542.17;;;376.58;;
61673;SDS011;47573;43.832;5.974;2023-02-21T02:07:35;533.75;;;373.52;;
61673;SDS011;47573;43.832;5.974;2023-02-21T02:14:22;535.30;;;370.30;;
61673;SDS011;47573;43.832;5.974;2023-02-21T02:21:37;530.47;;;364.40;;
61673;SDS011;47573;43.832;5.974;2023-02-21T02:28:40;528.33;;;360.25;;
61673;SDS011;47573;43.832;5.974;2023-02-21T02:35:35;515.67;;;352.63;;
61673;SDS011;47573;43.832;5.974;2023-02-21T02:42:22;518.03;;;352.13;;
61673;SDS011;47573;43.832;5.974;2023-02-21T02:49:13;508.45;;;345.60;;
61673;SDS011;47573;43.832;5.974;2023-02-21T02:55:59;506.63;;;339.63;;
61673;SDS011;47573;43.832;5.974;2023-02-21T03:02:45;490.80;;;331.25;;
61673;SDS011;47573;43.832;5.974;2023-02-21T03:09:38;483.55;;;323.33;;
61673;SDS011;47573;43.832;5.974;2023-02-21T03:16:28;477.05;;;313.75;;
61673;SDS011;47573;43.832;5.974;2023-02-21T03:23:12;471.90;;;307.92;;
61673;SDS011;47573;43.832;5.974;2023-02-21T03:29:57;449.05;;;295.15;;
61673;SDS011;47573;43.832;5.974;2023-02-21T03:36:42;447.63;;;291.95;;
61673;SDS011;47573;43.832;5.974;2023-02-21T03:43:24;440.40;;;285.08;;
61673;SDS011;47573;43.832;5.974;2023-02-21T03:50:04;434.23;;;280.60;;
61673;SDS011;47573;43.832;5.974;2023-02-21T03:56:46;432.88;;;284.42;;
61673;SDS011;47573;43.832;5.974;2023-02-21T04:03:27;427.05;;;278.55;;
61673;SDS011;47573;43.832;5.974;2023-02-21T04:10:07;416.25;;;271.27;;
61673;SDS011;47573;43.832;5.974;2023-02-21T04:16:49;417.05;;;268.70;;
61673;SDS011;47573;43.832;5.974;2023-02-21T04:23:30;405.45;;;258.30;;
61673;SDS011;47573;43.832;5.974;2023-02-21T04:30:11;398.43;;;253.87;;
61673;SDS011;47573;43.832;5.974;2023-02-21T04:36:53;387.30;;;246.50;;
61673;SDS011;47573;43.832;5.974;2023-02-21T04:43:33;378.05;;;243.63;;
61673;SDS011;47573;43.832;5.974;2023-02-21T04:50:14;382.33;;;242.90;;
61673;SDS011;47573;43.832;5.974;2023-02-21T04:56:56;378.27;;;238.68;;
61673;SDS011;47573;43.832;5.974;2023-02-21T05:03:37;368.05;;;230.82;;
61673;SDS011;47573;43.832;5.974;2023-02-21T05:10:17;362.08;;;228.68;;
61673;SDS011;47573;43.832;5.974;2023-02-21T05:16:59;353.33;;;224.40;;
61673;SDS011;47573;43.832;5.974;2023-02-21T05:23:40;344.67;;;220.10;;
61673;SDS011;47573;43.832;5.974;2023-02-21T05:30:21;344.65;;;216.45;;
61673;SDS011;47573;43.832;5.974;2023-02-21T05:37:04;340.30;;;212.68;;
61673;SDS011;47573;43.832;5.974;2023-02-21T05:43:44;329.60;;;206.88;;
61673;SDS011;47573;43.832;5.974;2023-02-21T05:50:24;317.27;;;197.30;;
61673;SDS011;47573;43.832;5.974;2023-02-21T05:57:09;307.95;;;190.75;;
61673;SDS011;47573;43.832;5.974;2023-02-21T06:03:50;309.20;;;188.00;;
61673;SDS011;47573;43.832;5.974;2023-02-21T06:10:30;300.13;;;179.45;;
61673;SDS011;47573;43.832;5.974;2023-02-21T06:17:12;291.80;;;177.17;;
61673;SDS011;47573;43.832;5.974;2023-02-21T06:23:52;281.45;;;173.27;;
61673;SDS011;47573;43.832;5.974;2023-02-21T06:30:34;279.23;;;169.60;;
61673;SDS011;47573;43.832;5.974;2023-02-21T06:37:17;278.83;;;167.25;;
61673;SDS011;47573;43.832;5.974;2023-02-21T06:43:58;273.00;;;162.43;;
61673;SDS011;47573;43.832;5.974;2023-02-21T06:50:39;267.05;;;154.93;;
61673;SDS011;47573;43.832;5.974;2023-02-21T06:57:21;255.50;;;150.53;;
61673;SDS011;47573;43.832;5.974;2023-02-21T07:04:01;252.00;;;149.88;;
61673;SDS011;47573;43.832;5.974;2023-02-21T07:10:42;257.10;;;152.75;;
61673;SDS011;47573;43.832;5.974;2023-02-21T07:17:24;344.40;;;176.00;;
61673;SDS011;47573;43.832;5.974;2023-02-21T07:24:05;347.20;;;180.35;;
61673;SDS011;47573;43.832;5.974;2023-02-21T07:30:45;322.35;;;174.32;;
61673;SDS011;47573;43.832;5.974;2023-02-21T07:37:27;274.60;;;154.03;;
61673;SDS011;47573;43.832;5.974;2023-02-21T07:44:08;288.75;;;157.00;;
61673;SDS011;47573;43.832;5.974;2023-02-21T07:50:49;247.52;;;144.63;;
61673;SDS011;47573;43.832;5.974;2023-02-21T07:57:30;244.50;;;144.37;;
61673;SDS011;47573;43.832;5.974;2023-02-21T08:04:11;392.70;;;195.45;;
61673;SDS011;47573;43.832;5.974;2023-02-21T08:10:51;216.43;;;133.97;;
61673;SDS011;47573;43.832;5.974;2023-02-21T08:17:33;200.97;;;124.13;;
61673;SDS011;47573;43.832;5.974;2023-02-21T08:24:14;203.50;;;125.85;;
61673;SDS011;47573;43.832;5.974;2023-02-21T08:30:55;197.88;;;123.22;;
61673;SDS011;47573;43.832;5.974;2023-02-21T08:37:37;195.07;;;119.17;;
61673;SDS011;47573;43.832;5.974;2023-02-21T08:44:17;169.18;;;104.85;;
61673;SDS011;47573;43.832;5.974;2023-02-21T08:50:58;171.02;;;105.70;;
61673;SDS011;47573;43.832;5.974;2023-02-21T08:57:40;178.83;;;107.13;;
61673;SDS011;47573;43.832;5.974;2023-02-21T09:04:20;172.60;;;105.05;;
61673;SDS011;47573;43.832;5.974;2023-02-21T09:11:01;167.23;;;102.83;;
61673;SDS011;47573;43.832;5.974;2023-02-21T09:17:44;170.75;;;104.68;;
61673;SDS011;47573;43.832;5.974;2023-02-21T09:24:25;162.32;;;99.50;;
61673;SDS011;47573;43.832;5.974;2023-02-21T09:31:06;166.60;;;100.78;;
61673;SDS011;47573;43.832;5.974;2023-02-21T09:37:48;193.20;;;109.10;;
61673;SDS011;47573;43.832;5.974;2023-02-21T09:44:29;188.27;;;106.03;;
61673;SDS011;47573;43.832;5.974;2023-02-21T09:51:10;677.38;;;297.88;;
61673;SDS011;47573;43.832;5.974;2023-02-21T09:57:53;247.17;;;120.87;;
61673;SDS011;47573;43.832;5.974;2023-02-21T10:04:37;171.60;;;101.28;;
61673;SDS011;47573;43.832;5.974;2023-02-21T10:11:33;148.55;;;94.25;;
61673;SDS011;47573;43.832;5.974;2023-02-21T10:18:23;490.40;;;206.77;;
61673;SDS011;47573;43.832;5.974;2023-02-21T10:25:17;186.10;;;105.83;;
61673;SDS011;47573;43.832;5.974;2023-02-21T10:32:01;148.10;;;94.82;;
61673;SDS011;47573;43.832;5.974;2023-02-21T10:38:46;146.38;;;90.95;;
61673;SDS011;47573;43.832;5.974;2023-02-21T10:45:35;168.00;;;94.78;;
61673;SDS011;47573;43.832;5.974;2023-02-21T10:52:23;134.23;;;84.38;;
61673;SDS011;47573;43.832;5.974;2023-02-21T10:59:05;126.38;;;80.38;;
61673;SDS011;47573;43.832;5.974;2023-02-21T11:05:47;122.10;;;77.07;;
61673;SDS011;47573;43.832;5.974;2023-02-21T11:12:28;129.23;;;79.70;;
61673;SDS011;47573;43.832;5.974;2023-02-21T11:19:11;126.53;;;78.47;;
61673;SDS011;47573;43.832;5.974;2023-02-21T11:25:55;116.68;;;73.28;;
61673;SDS011;47573;43.832;5.974;2023-02-21T11:32:39;117.50;;;72.95;;
61673;SDS011;47573;43.832;5.974;2023-02-21T11:39:23;108.47;;;70.73;;
61673;SDS011;47573;43.832;5.974;2023-02-21T11:46:12;108.57;;;70.05;;
61673;SDS011;47573;43.832;5.974;2023-02-21T11:52:59;109.32;;;68.85;;
61673;SDS011;47573;43.832;5.974;2023-02-21T11:59:47;106.57;;;68.13;;
61673;SDS011;47573;43.832;5.974;2023-02-21T12:06:37;98.25;;;64.00;;
61673;SDS011;47573;43.832;5.974;2023-02-21T12:13:25;100.95;;;65.60;;
61673;SDS011;47573;43.832;5.974;2023-02-21T12:20:23;104.28;;;64.80;;
61673;SDS011;47573;43.832;5.974;2023-02-21T12:27:14;101.00;;;64.72;;
61673;SDS011;47573;43.832;5.974;2023-02-21T12:34:01;94.50;;;60.63;;
61673;SDS011;47573;43.832;5.974;2023-02-21T12:40:58;95.15;;;60.80;;
61673;SDS011;47573;43.832;5.974;2023-02-21T12:47:47;90.60;;;58.75;;
61673;SDS011;47573;43.832;5.974;2023-02-21T12:54:35;88.07;;;57.00;;
61673;SDS011;47573;43.832;5.974;2023-02-21T13:01:24;91.80;;;58.22;;
61673;SDS011;47573;43.832;5.974;2023-02-21T13:08:10;82.63;;;54.15;;
61673;SDS011;47573;43.832;5.974;2023-02-21T13:14:57;83.10;;;53.72;;
61673;SDS011;47573;43.832;5.974;2023-02-21T13:22:05;87.28;;;55.22;;
61673;SDS011;47573;43.832;5.974;2023-02-21T13:28:57;84.15;;;52.90;;
61673;SDS011;47573;43.832;5.974;2023-02-21T13:35:38;130.82;;;66.63;;
61673;SDS011;47573;43.832;5.974;2023-02-21T13:42:21;94.82;;;57.88;;
61673;SDS011;47573;43.832;5.974;2023-02-21T13:56:19;91.20;;;58.67;;
61673;SDS011;47573;43.832;5.974;2023-02-21T14:03:31;93.22;;;58.47;;
61673;SDS011;47573;43.832;5.974;2023-02-21T14:10:18;91.63;;;59.42;;
61673;SDS011;47573;43.832;5.974;2023-02-21T14:17:03;543.83;;;233.85;;
61673;SDS011;47573;43.832;5.974;2023-02-21T14:23:49;87.43;;;59.00;;
61673;SDS011;47573;43.832;5.974;2023-02-21T14:30:32;84.70;;;56.67;;
61673;SDS011;47573;43.832;5.974;2023-02-21T14:37:15;85.28;;;56.15;;
61673;SDS011;47573;43.832;5.974;2023-02-21T14:44:08;422.60;;;199.50;;
61673;SDS011;47573;43.832;5.974;2023-02-21T14:51:04;87.00;;;57.67;;
61673;SDS011;47573;43.832;5.974;2023-02-21T15:05:24;119.27;;;77.57;;
61673;SDS011;47573;43.832;5.974;2023-02-21T15:12:08;290.25;;;138.68;;
61673;SDS011;47573;43.832;5.974;2023-02-21T15:18:56;147.75;;;93.57;;
61673;SDS011;47573;43.832;5.974;2023-02-21T15:25:39;256.58;;;125.20;;
61673;SDS011;47573;43.832;5.974;2023-02-21T15:32:20;155.70;;;103.13;;
61673;SDS011;47573;43.832;5.974;2023-02-21T15:39:03;171.50;;;114.00;;
61673;SDS011;47573;43.832;5.974;2023-02-21T15:45:49;177.80;;;117.00;;
61673;SDS011;47573;43.832;5.974;2023-02-21T15:52:33;169.80;;;115.35;;
61673;SDS011;47573;43.832;5.974;2023-02-21T15:59:17;156.43;;;108.75;;
61673;SDS011;47573;43.832;5.974;2023-02-21T16:06:09;186.07;;;123.90;;
61673;SDS011;47573;43.832;5.974;2023-02-21T16:12:54;211.73;;;140.65;;
61673;SDS011;47573;43.832;5.974;2023-02-21T16:19:36;241.23;;;159.65;;
61673;SDS011;47573;43.832;5.974;2023-02-21T16:26:20;281.63;;;189.93;;
61673;SDS011;47573;43.832;5.974;2023-02-21T16:33:03;283.30;;;192.75;;
61673;SDS011;47573;43.832;5.974;2023-02-21T16:39:44;277.20;;;188.80;;
61673;SDS011;47573;43.832;5.974;2023-02-21T16:46:26;290.20;;;199.47;;
61673;SDS011;47573;43.832;5.974;2023-02-21T16:53:09;282.83;;;192.73;;
61673;SDS011;47573;43.832;5.974;2023-02-21T16:59:50;280.55;;;192.48;;
61673;SDS011;47573;43.832;5.974;2023-02-21T17:06:32;308.10;;;215.67;;
61673;SDS011;47573;43.832;5.974;2023-02-21T17:13:13;310.50;;;221.55;;
61673;SDS011;47573;43.832;5.974;2023-02-21T17:19:54;301.10;;;213.07;;
61673;SDS011;47573;43.832;5.974;2023-02-21T17:26:35;338.42;;;239.90;;
61673;SDS011;47573;43.832;5.974;2023-02-21T17:33:16;362.20;;;261.23;;
61673;SDS011;47573;43.832;5.974;2023-02-21T17:39:59;383.17;;;278.52;;
61673;SDS011;47573;43.832;5.974;2023-02-21T17:46:44;386.33;;;281.40;;
61673;SDS011;47573;43.832;5.974;2023-02-21T17:53:25;413.42;;;304.55;;
61673;SDS011;47573;43.832;5.974;2023-02-21T18:00:07;401.92;;;290.25;;
61673;SDS011;47573;43.832;5.974;2023-02-21T18:06:52;395.27;;;292.42;;
61673;SDS011;47573;43.832;5.974;2023-02-21T18:13:33;390.70;;;285.17;;
61673;SDS011;47573;43.832;5.974;2023-02-21T18:20:13;388.63;;;284.83;;
61673;SDS011;47573;43.832;5.974;2023-02-21T18:26:56;388.02;;;280.13;;
61673;SDS011;47573;43.832;5.974;2023-02-21T18:33:37;384.00;;;276.98;;
61673;SDS011;47573;43.832;5.974;2023-02-21T18:40:17;398.30;;;280.87;;
61673;SDS011;47573;43.832;5.974;2023-02-21T18:46:59;399.92;;;279.45;;
61673;SDS011;47573;43.832;5.974;2023-02-21T18:53:41;396.50;;;280.75;;
61673;SDS011;47573;43.832;5.974;2023-02-21T19:00:23;401.13;;;281.75;;
61673;SDS011;47573;43.832;5.974;2023-02-21T19:07:06;421.10;;;292.20;;
61673;SDS011;47573;43.832;5.974;2023-02-21T19:13:50;446.05;;;311.10;;
61673;SDS011;47573;43.832;5.974;2023-02-21T19:20:31;469.83;;;327.07;;
61673;SDS011;47573;43.832;5.974;2023-02-21T19:27:12;485.67;;;339.80;;
61673;SDS011;47573;43.832;5.974;2023-02-21T19:33:53;514.55;;;347.35;;
61673;SDS011;47573;43.832;5.974;2023-02-21T19:40:34;472.20;;;330.97;;
61673;SDS011;47573;43.832;5.974;2023-02-21T19:47:16;567.78;;;366.05;;
61673;SDS011;47573;43.832;5.974;2023-02-21T20:06:13;428.55;;;282.92;;
61673;SDS011;47573;43.832;5.974;2023-02-21T20:12:54;514.00;;;324.95;;
61673;SDS011;47573;43.832;5.974;2023-02-21T20:19:35;474.42;;;308.23;;
61673;SDS011;47573;43.832;5.974;2023-02-21T20:26:17;468.63;;;309.00;;
61673;SDS011;47573;43.832;5.974;2023-02-21T20:32:57;469.87;;;310.30;;
61673;SDS011;47573;43.832;5.974;2023-02-21T20:39:38;436.75;;;300.83;;
61673;SDS011;47573;43.832;5.974;2023-02-21T20:46:21;460.47;;;315.83;;
61673;SDS011;47573;43.832;5.974;2023-02-21T20:53:02;519.80;;;344.58;;
61673;SDS011;47573;43.832;5.974;2023-02-21T20:59:42;475.50;;;327.70;;
61673;SDS011;47573;43.832;5.974;2023-02-21T21:06:26;476.60;;;322.63;;
61673;SDS011;47573;43.832;5.974;2023-02-21T21:13:06;469.17;;;320.85;;
61673;SDS011;47573;43.832;5.974;2023-02-21T21:19:47;488.05;;;339.45;;
61673;SDS011;47573;43.832;5.974;2023-02-21T21:26:29;492.75;;;344.92;;
61673;SDS011;47573;43.832;5.974;2023-02-21T21:33:10;483.10;;;338.02;;
61673;SDS011;47573;43.832;5.974;2023-02-21T21:39:51;484.73;;;336.50;;
61673;SDS011;47573;43.832;5.974;2023-02-21T21:46:34;477.03;;;330.10;;
61673;SDS011;47573;43.832;5.974;2023-02-21T21:53:15;470.02;;;325.60;;
61673;SDS011;47573;43.832;5.974;2023-02-21T21:59:55;493.80;;;341.35;;
61673;SDS011;47573;43.832;5.974;2023-02-21T22:06:37;507.90;;;355.60;;
61673;SDS011;47573;43.832;5.974;2023-02-21T22:13:18;509.60;;;357.05;;
61673;SDS011;47573;43.832;5.974;2023-02-21T22:19:59;505.25;;;345.02;;
61673;SDS011;47573;43.832;5.974;2023-02-21T22:26:41;500.13;;;344.83;;
61673;SDS011;47573;43.832;5.974;2023-02-21T22:33:22;499.30;;;340.70;;
61673;SDS011;47573;43.832;5.974;2023-02-21T22:40:03;509.80;;;346.80;;
61673;SDS011;47573;43.832;5.974;2023-02-21T22:46:45;510.88;;;354.73;;
61673;SDS011;47573;43.832;5.974;2023-02-21T22:53:27;504.50;;;344.40;;
61673;SDS011;47573;43.832;5.974;2023-02-21T23:00:08;499.53;;;335.53;;
61673;SDS011;47573;43.832;5.974;2023-02-21T23:06:50;495.48;;;335.80;;
61673;SDS011;47573;43.832;5.974;2023-02-21T23:13:32;496.97;;;333.43;;
61673;SDS011;47573;43.832;5.974;2023-02-21T23:20:14;490.23;;;331.80;;
61673;SDS011;47573;43.832;5.974;2023-02-21T23:26:57;499.23;;;339.10;;
61673;SDS011;47573;43.832;5.974;2023-02-21T23:33:38;513.75;;;351.45;;
61673;SDS011;47573;43.832;5.974;2023-02-21T23:40:19;524.38;;;364.83;;
61673;SDS011;47573;43.832;5.974;2023-02-21T23:47:02;543.58;;;378.13;;
61673;SDS011;47573;43.832;5.974;2023-02-21T23:53:43;548.75;;;386.58;;
